Time;durP1;ratioP1;P1;durP2;ratioP2;P2;SDS_P1;SDS_P2;PMS_P1;PMS_P2;Temp;Humidity;BMP_temperature;BMP_pressure;BME280_temperature;BME280_humidity;BME280_pressure;Samples;Min_cycle;Max_cycle;Signal;HPM_P1;HPM_P2
2022/06/20 00:02:28;;;;;;;15.82;5.43;;;13.50;99.90;;;;;;5064450;28;20068;-66
2022/06/20 00:04:55;;;;;;;13.45;4.72;;;13.50;99.90;;;;;;5060602;28;20045;-66
2022/06/20 00:07:21;;;;;;;10.23;3.88;;;13.50;99.90;;;;;;5066531;28;20071;-67
2022/06/20 00:09:47;;;;;;;8.20;3.38;;;13.50;99.90;;;;;;5065291;28;20091;-66
2022/06/20 00:12:20;;;;;;;11.20;4.38;;;13.40;99.90;;;;;;5070839;28;20123;-66
2022/06/20 00:14:50;;;;;;;8.85;3.90;;;13.50;99.90;;;;;;5083163;28;20052;-67
2022/06/20 00:17:16;;;;;;;9.98;4.43;;;13.40;99.90;;;;;;5063727;28;20036;-66
2022/06/20 00:19:42;;;;;;;9.07;4.22;;;13.40;99.90;;;;;;5067329;28;20366;-67
2022/06/20 00:22:10;;;;;;;8.40;4.05;;;13.40;99.90;;;;;;5065489;28;20040;-67
2022/06/20 00:24:35;;;;;;;10.63;4.57;;;13.30;99.90;;;;;;5066371;28;20551;-66
2022/06/20 00:27:06;;;;;;;13.15;4.40;;;13.30;99.90;;;;;;5070642;28;20056;-66
2022/06/20 00:29:41;;;;;;;9.25;4.15;;;13.30;99.90;;;;;;5066670;28;20072;-66
2022/06/20 00:32:10;;;;;;;12.48;3.95;;;13.30;99.90;;;;;;5057234;28;20049;-67
2022/06/20 00:34:35;;;;;;;;;;;13.30;99.90;;;;;;5081966;28;20040;-67
2022/06/20 00:37:02;;;;;;;10.07;4.80;;;13.20;99.90;;;;;;5080274;28;19926;-66
2022/06/20 00:39:28;;;;;;;8.73;3.78;;;13.20;99.90;;;;;;5077107;28;20083;-66
2022/06/20 00:41:54;;;;;;;8.65;4.28;;;13.20;99.90;;;;;;5078304;28;20068;-66
2022/06/20 00:44:27;;;;;;;11.68;4.65;;;13.20;99.90;;;;;;5069117;28;20044;-66
2022/06/20 00:46:57;;;;;;;17.13;4.97;;;13.20;99.90;;;;;;5066661;28;20502;-66
2022/06/20 00:49:31;;;;;;;9.70;4.43;;;13.10;99.90;;;;;;5063318;28;20032;-66
2022/06/20 00:52:22;;;;;;;10.25;4.38;;;13.10;99.90;;;;;;5067195;28;20064;-66
2022/06/20 00:55:03;;;;;;;11.20;4.55;;;13.10;99.90;;;;;;5059918;28;20174;-65
2022/06/20 00:57:45;;;;;;;8.73;4.40;;;13.10;99.90;;;;;;5064570;28;20068;-65
2022/06/20 01:00:19;;;;;;;13.80;4.88;;;13.10;99.90;;;;;;5061238;28;20136;-65
2022/06/20 01:02:58;;;;;;;5.43;4.20;;;13.10;99.90;;;;;;5063655;28;20037;-66
2022/06/20 01:05:32;;;;;;;10.00;4.65;;;13.10;99.90;;;;;;5068468;28;20177;-65
2022/06/20 01:08:13;;;;;;;10.32;4.75;;;13.00;99.90;;;;;;5068650;28;20131;-65
2022/06/20 01:11:13;;;;;;;11.63;5.93;;;13.10;99.90;;;;;;5069927;28;20489;-65
2022/06/20 01:13:39;;;;;;;12.65;5.10;;;13.10;99.90;;;;;;5068262;28;20053;-66
2022/06/20 01:16:20;;;;;;;7.75;4.55;;;13.10;99.90;;;;;;5068201;28;20040;-66
2022/06/20 01:18:47;;;;;;;8.68;4.60;;;13.10;99.90;;;;;;5066089;28;20040;-66
2022/06/20 01:21:16;;;;;;;21.48;6.05;;;13.10;99.90;;;;;;5068330;28;20054;-66
2022/06/20 01:24:03;;;;;;;16.23;5.53;;;13.10;99.90;;;;;;5066822;28;20032;-65
2022/06/20 01:27:02;;;;;;;11.73;5.22;;;13.10;99.90;;;;;;5061472;28;20036;-66
2022/06/20 01:29:28;;;;;;;19.25;6.18;;;13.10;99.90;;;;;;5067666;28;20408;-67
2022/06/20 01:31:56;;;;;;;17.42;5.90;;;13.10;99.90;;;;;;5068451;28;20041;-66
2022/06/20 01:34:22;;;;;;;18.42;4.75;;;13.10;99.90;;;;;;5069462;28;20111;-65
2022/06/20 01:39:44;;;;;;;17.23;5.95;;;13.20;99.90;;;;;;5048572;28;20053;-66
2022/06/20 01:42:21;;;;;;;15.02;5.32;;;13.20;99.90;;;;;;5061496;28;20080;-66
2022/06/20 01:45:03;;;;;;;13.48;5.13;;;13.20;99.90;;;;;;5055574;28;20296;-66
2022/06/20 01:47:29;;;;;;;13.80;5.80;;;13.20;99.90;;;;;;5068107;28;20398;-66
2022/06/20 01:50:00;;;;;;;10.85;5.65;;;13.20;99.90;;;;;;5063290;28;21153;-65
2022/06/20 01:52:34;;;;;;;14.27;6.05;;;13.20;99.90;;;;;;5068622;28;20094;-65
2022/06/20 01:55:27;;;;;;;25.05;6.18;;;13.20;99.90;;;;;;5066509;28;20104;-66
2022/06/20 01:58:04;;;;;;;11.07;5.90;;;13.20;99.90;;;;;;5069425;28;20127;-65
2022/06/20 02:00:30;;;;;;;14.05;6.00;;;13.20;99.90;;;;;;5067025;28;20040;-65
2022/06/20 02:03:01;;;;;;;10.10;5.60;;;13.20;99.90;;;;;;5057221;28;20137;-67
2022/06/20 02:05:31;;;;;;;9.40;6.18;;;13.20;99.90;;;;;;5062876;28;20562;-66
2022/06/20 02:08:01;;;;;;;15.82;6.35;;;13.20;99.90;;;;;;5062195;28;20121;-66
2022/06/20 02:10:48;;;;;;;12.98;5.78;;;13.20;99.90;;;;;;5070713;28;20409;-66
2022/06/20 02:13:17;;;;;;;15.25;5.95;;;13.10;99.90;;;;;;5070549;28;20036;-65
2022/06/20 02:15:44;;;;;;;15.00;6.20;;;13.10;99.90;;;;;;5068394;28;20071;-65
2022/06/20 02:18:11;;;;;;;8.23;5.30;;;13.10;99.90;;;;;;5068575;28;20106;-65
2022/06/20 02:20:45;;;;;;;12.68;6.15;;;13.10;99.90;;;;;;5062678;28;20164;-65
2022/06/20 02:23:15;;;;;;;12.95;5.22;;;13.00;99.90;;;;;;5061904;28;20056;-66
2022/06/20 02:25:43;;;;;;;7.57;4.85;;;13.00;99.90;;;;;;5059529;28;20045;-66
2022/06/20 02:28:15;;;;;;;12.18;5.47;;;13.00;99.90;;;;;;5050555;28;20052;-66
2022/06/20 02:30:42;;;;;;;11.20;5.88;;;13.00;99.90;;;;;;5064806;28;20888;-66
2022/06/20 02:33:18;;;;;;;12.52;5.35;;;12.90;99.90;;;;;;5067728;28;20044;-65
2022/06/20 02:35:44;;;;;;;13.40;6.28;;;12.90;99.90;;;;;;5054280;28;20067;-66
2022/06/20 02:38:11;;;;;;;17.27;6.05;;;12.80;99.90;;;;;;5078924;28;20074;-66
2022/06/20 02:40:42;;;;;;;10.52;5.13;;;12.80;99.90;;;;;;5067931;28;20048;-66
2022/06/20 02:43:24;;;;;;;8.90;5.13;;;12.80;99.90;;;;;;5047381;28;20099;-66
2022/06/20 02:45:52;;;;;;;10.02;5.32;;;12.70;99.90;;;;;;5065167;28;20044;-66
2022/06/20 02:48:20;;;;;;;11.18;5.70;;;12.60;99.90;;;;;;5068258;28;20485;-66
2022/06/20 02:50:50;;;;;;;12.52;5.47;;;12.50;99.90;;;;;;5061708;28;20406;-66
2022/06/20 02:53:19;;;;;;;13.68;5.28;;;12.40;99.90;;;;;;5066677;28;20052;-66
2022/06/20 02:55:46;;;;;;;10.00;4.80;;;12.40;99.90;;;;;;5067587;28;20051;-66
2022/06/20 02:58:20;;;;;;;13.17;5.97;;;12.40;99.90;;;;;;5060732;28;20032;-66
2022/06/20 03:01:02;;;;;;;8.07;4.53;;;12.30;99.90;;;;;;5079318;28;20294;-66
2022/06/20 03:03:35;;;;;;;8.18;5.20;;;12.30;99.90;;;;;;5068217;28;20166;-66
2022/06/20 03:06:02;;;;;;;9.85;4.43;;;12.20;99.90;;;;;;5062105;28;20082;-65
2022/06/20 03:08:29;;;;;;;12.18;4.93;;;12.10;99.90;;;;;;5067675;28;20419;-66
2022/06/20 03:10:55;;;;;;;6.78;4.35;;;12.10;99.90;;;;;;5067026;28;20053;-66
2022/06/20 03:13:23;;;;;;;8.15;4.82;;;12.10;99.90;;;;;;5062265;28;20094;-66
2022/06/20 03:15:51;;;;;;;14.13;5.25;;;12.10;99.90;;;;;;5060708;28;20041;-66
2022/06/20 03:18:20;;;;;;;8.60;5.13;;;12.00;99.90;;;;;;5052927;28;20048;-66
2022/06/20 03:20:46;;;;;;;11.70;5.13;;;12.00;99.90;;;;;;5076941;28;20040;-66
2022/06/20 03:23:27;;;;;;;11.30;5.28;;;12.00;99.90;;;;;;5077907;28;20052;-66
2022/06/20 03:25:56;;;;;;;18.23;5.15;;;12.00;99.90;;;;;;5066757;28;20052;-66
2022/06/20 03:28:23;;;;;;;10.02;4.65;;;11.90;99.90;;;;;;5067378;28;20043;-66
2022/06/20 03:30:50;;;;;;;11.75;6.03;;;11.90;99.90;;;;;;5066924;28;20041;-66
2022/06/20 03:33:17;;;;;;;8.82;4.97;;;11.80;99.90;;;;;;5067570;28;20099;-66
2022/06/20 03:35:48;;;;;;;17.70;5.47;;;11.80;99.90;;;;;;5053521;28;20054;-65
2022/06/20 03:38:15;;;;;;;11.77;5.35;;;11.80;99.90;;;;;;5066831;28;20040;-65
2022/06/20 03:40:42;;;;;;;15.20;4.97;;;11.70;99.90;;;;;;5067008;28;21081;-65
2022/06/20 03:43:11;;;;;;;7.95;4.97;;;11.60;99.90;;;;;;5067307;28;20271;-65
2022/06/20 03:45:41;;;;;;;9.32;5.90;;;11.60;99.90;;;;;;5056036;28;20045;-65
2022/06/20 03:48:18;;;;;;;19.48;7.72;;;11.60;99.90;;;;;;5067324;28;20086;-66
2022/06/20 03:50:57;;;;;;;17.23;6.20;;;11.60;99.90;;;;;;5066508;28;20083;-66
2022/06/20 03:53:32;;;;;;;11.88;6.60;;;11.60;99.90;;;;;;5064528;28;20040;-66
2022/06/20 03:56:19;;;;;;;9.93;5.32;;;11.60;99.90;;;;;;5069003;28;20195;-66
2022/06/20 03:59:24;;;;;;;19.13;6.50;;;11.50;99.90;;;;;;5068231;28;20045;-65
2022/06/20 04:02:14;;;;;;;10.77;6.10;;;11.50;99.90;;;;;;5060247;28;20079;-66
2022/06/20 04:04:52;;;;;;;9.45;6.35;;;11.50;99.90;;;;;;5067619;28;20056;-66
2022/06/20 04:07:50;;;;;;;9.52;6.40;;;11.50;99.90;;;;;;5070899;28;20717;-66
2022/06/20 04:13:24;;;;;;;11.68;6.75;;;11.60;99.90;;;;;;5067609;28;20053;-66
2022/06/20 04:15:56;;;;;;;16.45;6.82;;;11.60;99.90;;;;;;5063497;28;20105;-65
2022/06/20 04:18:48;;;;;;;14.63;7.25;;;11.70;99.90;;;;;;5073677;28;20083;-65
2022/06/20 04:21:33;;;;;;;8.40;7.15;;;11.80;99.90;;;;;;5078060;28;20059;-66
2022/06/20 04:24:10;;;;;;;13.27;7.35;;;11.80;99.90;;;;;;5060882;28;20044;-66
2022/06/20 04:26:41;;;;;;;13.35;7.43;;;11.80;99.90;;;;;;5070206;28;20076;-66
2022/06/20 04:29:15;;;;;;;14.63;6.80;;;11.80;99.90;;;;;;5071591;28;20052;-66
2022/06/20 04:31:58;;;;;;;14.57;6.25;;;11.90;99.90;;;;;;5074723;28;20508;-66
2022/06/20 04:34:46;;;;;;;15.63;6.88;;;11.90;99.90;;;;;;5080013;28;20044;-66
2022/06/20 04:37:35;;;;;;;11.70;6.78;;;11.90;99.90;;;;;;5071477;28;20041;-66
2022/06/20 04:40:10;;;;;;;18.40;8.02;;;12.00;99.90;;;;;;5063770;28;20592;-66
2022/06/20 04:42:38;;;;;;;10.05;6.80;;;11.90;99.90;;;;;;5063351;28;20040;-66
2022/06/20 04:45:32;;;;;;;14.20;8.15;;;11.90;99.90;;;;;;5076664;28;20041;-66
2022/06/20 04:48:10;;;;;;;8.55;7.43;;;11.90;99.90;;;;;;5050649;28;20083;-66
2022/06/20 04:50:37;;;;;;;15.95;7.95;;;11.90;99.90;;;;;;5063911;28;20049;-64
2022/06/20 04:53:08;;;;;;;17.27;8.20;;;12.00;99.90;;;;;;5054822;28;20035;-66
2022/06/20 04:55:38;;;;;;;10.77;7.55;;;12.00;99.90;;;;;;5054863;28;20041;-66
2022/06/20 04:58:11;;;;;;;15.02;8.20;;;12.10;99.90;;;;;;5060242;28;20037;-66
2022/06/20 05:00:42;;;;;;;24.20;8.13;;;12.20;99.90;;;;;;5065629;28;20117;-66
2022/06/20 05:03:14;;;;;;;22.38;9.27;;;12.30;99.90;;;;;;5071003;28;20120;-66
2022/06/20 05:05:43;;;;;;;21.70;8.20;;;12.30;99.90;;;;;;5068801;28;20048;-66
2022/06/20 05:08:13;;;;;;;16.65;8.73;;;12.30;99.90;;;;;;5069054;28;20044;-67
2022/06/20 05:11:04;;;;;;;12.10;7.53;;;12.40;99.90;;;;;;5060399;28;20044;-66
2022/06/20 05:13:36;;;;;;;17.38;8.40;;;12.40;99.90;;;;;;5064826;28;20127;-66
2022/06/20 05:16:05;;;;;;;19.80;8.73;;;12.40;99.90;;;;;;5060507;28;20037;-66
2022/06/20 05:18:47;;;;;;;20.58;8.93;;;12.50;99.90;;;;;;5068791;28;20115;-66
2022/06/20 05:21:24;;;;;;;23.67;7.88;;;12.60;99.90;;;;;;5069607;28;20502;-67
2022/06/20 05:23:54;;;;;;;13.00;8.15;;;12.60;99.90;;;;;;5064069;28;20048;-66
2022/06/20 05:26:23;;;;;;;27.00;9.55;;;12.60;99.90;;;;;;5080666;28;20051;-66
2022/06/20 05:28:51;;;;;;;21.60;8.40;;;12.70;99.90;;;;;;5087900;28;20043;-66
2022/06/20 05:31:35;;;;;;;17.20;8.35;;;12.80;99.90;;;;;;5069064;28;20305;-66
2022/06/20 05:34:15;;;;;;;13.32;6.90;;;12.80;99.90;;;;;;5070965;28;20076;-66
2022/06/20 05:36:52;;;;;;;21.05;8.05;;;12.90;99.90;;;;;;5081508;28;20046;-67
2022/06/20 05:39:50;;;;;;;22.27;8.65;;;13.00;99.90;;;;;;5065301;28;20036;-66
2022/06/20 05:42:18;;;;;;;24.73;9.07;;;13.10;99.90;;;;;;5067935;28;20063;-66
2022/06/20 05:44:44;;;;;;;19.73;9.18;;;13.20;99.90;;;;;;5067201;28;20170;-66
2022/06/20 05:47:22;;;;;;;26.70;9.18;;;13.40;99.90;;;;;;5066904;28;20133;-66
2022/06/20 05:49:57;;;;;;;29.08;8.93;;;13.60;99.90;;;;;;5066506;28;20520;-66
2022/06/20 05:52:25;;;;;;;18.73;7.25;;;13.80;99.90;;;;;;5061866;28;20084;-66
2022/06/20 05:55:03;;;;;;;22.10;8.05;;;14.00;99.90;;;;;;5068449;28;20048;-67
2022/06/20 05:57:33;;;;;;;17.65;7.97;;;14.30;99.90;;;;;;5059501;28;20093;-66
2022/06/20 06:00:06;;;;;;;14.73;7.32;;;14.50;99.90;;;;;;5066291;28;20037;-66
2022/06/20 06:02:38;;;;;;;22.23;7.45;;;14.60;99.90;;;;;;5058252;28;20048;-66
2022/06/20 06:05:25;;;;;;;14.18;6.80;;;14.80;99.90;;;;;;5068712;28;20391;-66
2022/06/20 06:08:03;;;;;;;20.45;7.55;;;14.90;99.90;;;;;;5072127;28;20068;-67
2022/06/20 06:10:31;;;;;;;25.27;7.75;;;15.00;99.90;;;;;;5068831;28;20044;-66
2022/06/20 06:13:39;;;;;;;21.23;7.13;;;15.20;99.90;;;;;;5060244;28;20052;-67
2022/06/20 06:19:04;;;;;;;17.33;6.50;;;15.30;99.90;;;;;;5056717;28;20026;-66
2022/06/20 06:21:33;;;;;;;17.98;6.22;;;15.40;99.90;;;;;;5061501;28;20056;-67
2022/06/20 06:23:59;;;;;;;14.55;6.45;;;15.50;99.90;;;;;;5068636;28;20072;-67
2022/06/20 06:26:25;;;;;;;13.57;7.80;;;15.60;99.90;;;;;;5070162;28;20040;-67
2022/06/20 06:28:53;;;;;;;15.38;6.80;;;15.80;99.90;;;;;;5066907;28;20123;-67
2022/06/20 06:31:23;;;;;;;23.75;7.32;;;16.00;99.90;;;;;;5059978;28;20402;-67
2022/06/20 06:33:58;;;;;;;15.90;7.88;;;16.20;99.90;;;;;;5075339;28;20635;-67
2022/06/20 06:36:40;;;;;;;18.27;7.45;;;16.30;99.90;;;;;;5071212;28;20036;-66
2022/06/20 06:39:49;;;;;;;30.45;8.10;;;16.60;99.90;;;;;;5065917;28;20037;-67
2022/06/20 06:42:16;;;;;;;16.60;7.88;;;16.80;99.90;;;;;;5066249;28;20090;-67
2022/06/20 06:44:46;;;;;;;19.75;7.35;;;17.00;99.90;;;;;;5067262;28;20055;-67
2022/06/20 06:47:42;;;;;;;19.77;6.78;;;17.20;99.90;;;;;;5050035;28;20057;-67
2022/06/20 06:50:33;;;;;;;19.67;7.00;;;17.40;99.90;;;;;;5045865;28;20052;-67
2022/06/20 06:53:08;;;;;;;12.73;6.50;;;17.40;99.90;;;;;;5069576;28;20336;-67
2022/06/20 06:55:41;;;;;;;26.77;8.85;;;17.40;99.90;;;;;;5062739;28;20094;-67
2022/06/20 06:58:23;;;;;;;15.40;7.32;;;17.40;99.90;;;;;;5064590;28;20055;-66
2022/06/20 07:00:57;;;;;;;15.40;6.72;;;17.50;99.90;;;;;;5064057;28;20080;-66
2022/06/20 07:03:30;;;;;;;19.55;6.32;;;17.80;99.90;;;;;;5064643;28;20584;-67
2022/06/20 07:06:02;;;;;;;13.38;5.47;;;17.70;99.90;;;;;;5065053;28;20149;-67
2022/06/20 07:08:35;;;;;;;17.33;6.38;;;17.80;99.90;;;;;;5061539;28;20041;-68
2022/06/20 07:11:10;;;;;;;15.15;6.75;;;17.90;99.90;;;;;;5059373;28;20045;-68
2022/06/20 07:13:46;;;;;;;13.35;6.13;;;18.20;99.90;;;;;;5049024;28;20036;-68
2022/06/20 07:16:40;;;;;;;10.70;5.60;;;18.60;99.90;;;;;;5062160;28;20044;-68
2022/06/20 07:19:10;;;;;;;9.18;5.38;;;19.10;99.90;;;;;;5067598;28;20054;-66
2022/06/20 07:21:38;;;;;;;14.02;6.07;;;19.50;99.90;;;;;;5082823;28;20135;-68
2022/06/20 07:24:19;;;;;;;12.80;6.18;;;19.70;99.90;;;;;;5077366;28;20409;-68
2022/06/20 07:26:59;;;;;;;13.65;5.45;;;20.30;99.90;;;;;;5066965;28;20040;-66
2022/06/20 07:29:32;;;;;;;16.05;6.95;;;20.60;97.90;;;;;;5074345;28;20094;-65
2022/06/20 07:32:10;;;;;;;15.20;6.60;;;20.70;99.90;;;;;;5055087;28;20501;-66
2022/06/20 07:34:55;;;;;;;14.75;5.35;;;20.60;90.80;;;;;;5066504;28;20052;-67
2022/06/20 07:38:00;;;;;;;16.27;7.07;;;20.70;97.60;;;;;;5068716;28;20041;-67
2022/06/20 07:40:33;;;;;;;15.73;5.72;;;20.70;99.90;;;;;;5069325;28;20041;-67
2022/06/20 07:43:06;;;;;;;11.43;5.10;;;20.70;99.50;;;;;;5069530;28;20137;-67
2022/06/20 07:45:37;;;;;;;13.70;5.53;;;20.90;93.70;;;;;;5061876;28;20060;-67
2022/06/20 07:48:11;;;;;;;11.90;6.03;;;20.60;99.90;;;;;;5067950;28;20116;-67
2022/06/20 07:50:45;;;;;;;15.40;6.32;;;20.40;98.00;;;;;;5067063;28;20040;-67
2022/06/20 07:53:23;;;;;;;10.80;6.38;;;20.30;99.90;;;;;;5071070;28;20047;-67
2022/06/20 07:55:59;;;;;;;11.90;6.38;;;20.40;99.90;;;;;;5070958;28;20055;-67
2022/06/20 07:58:33;;;;;;;17.75;7.15;;;20.70;95.90;;;;;;5063109;28;20041;-67
2022/06/20 08:01:03;;;;;;;15.93;7.03;;;20.70;92.40;;;;;;5068762;28;20080;-74
2022/06/20 08:03:41;;;;;;;13.45;5.72;;;20.60;95.30;;;;;;5070123;28;20898;-68
2022/06/20 08:06:49;;;;;;;11.18;6.28;;;20.30;94.70;;;;;;5060356;28;20099;-69
2022/06/20 08:09:29;;;;;;;22.25;6.10;;;20.00;91.90;;;;;;5067923;28;20040;-69
2022/06/20 08:12:17;;;;;;;10.85;5.35;;;19.60;86.70;;;;;;5067026;28;20045;-68
2022/06/20 08:14:50;;;;;;;14.55;6.80;;;19.20;92.70;;;;;;5069962;28;20405;-68
2022/06/20 08:17:16;;;;;;;61.17;9.00;;;18.90;99.90;;;;;;5069829;28;20071;-68
2022/06/20 08:19:44;;;;;;;17.13;6.28;;;18.60;99.90;;;;;;5061167;28;20177;-69
2022/06/20 08:22:22;;;;;;;15.23;7.07;;;18.40;99.90;;;;;;5067734;28;20876;-69
2022/06/20 08:24:47;;;;;;;;;;;18.50;99.90;;;;;;5065494;28;20040;-69
2022/06/20 08:27:21;;;;;;;22.00;6.53;;;18.50;99.90;;;;;;5075487;28;19973;-68
2022/06/20 08:29:59;;;;;;;15.43;6.78;;;18.50;99.90;;;;;;5062695;28;20047;-68
2022/06/20 08:32:48;;;;;;;16.35;6.00;;;19.00;99.90;;;;;;5069854;28;20085;-68
2022/06/20 08:35:47;;;;;;;12.90;7.00;;;19.30;99.90;;;;;;5058873;28;20071;-68
2022/06/20 08:38:38;;;;;;;22.92;6.63;;;19.40;98.30;;;;;;5069244;28;20044;-67
2022/06/20 08:41:21;;;;;;;18.60;9.82;;;19.60;97.50;;;;;;5057084;28;20056;-68
2022/06/20 08:44:21;;;;;;;19.92;6.18;;;20.10;99.60;;;;;;5068796;28;20866;-68
2022/06/20 08:47:10;;;;;;;8.43;5.32;;;20.40;91.20;;;;;;5054238;28;20494;-68
2022/06/20 08:49:41;;;;;;;12.60;6.20;;;20.30;88.00;;;;;;5062103;28;20428;-67
2022/06/20 08:52:45;;;;;;;18.30;5.85;;;20.10;90.40;;;;;;5064716;28;20562;-67
2022/06/20 08:55:56;;;;;;;9.85;4.80;;;19.90;95.80;;;;;;5074348;28;20040;-68
2022/06/20 08:58:21;;;;;;;15.82;4.88;;;19.50;93.10;;;;;;5066214;28;20127;-67
2022/06/20 09:01:33;;;;;;;9.48;4.05;;;19.30;98.00;;;;;;5069941;28;20163;-68
2022/06/20 09:04:07;;;;;;;10.27;4.30;;;19.10;92.60;;;;;;5064886;28;20057;-67
2022/06/20 09:07:13;;;;;;;12.80;4.85;;;19.20;97.50;;;;;;5069884;28;20131;-67
2022/06/20 09:09:51;;;;;;;14.63;5.07;;;19.60;96.00;;;;;;5068269;28;20051;-67
2022/06/20 09:12:38;;;;;;;9.32;4.35;;;20.00;98.40;;;;;;5061887;28;20050;-67
2022/06/20 09:15:28;;;;;;;21.02;4.28;;;20.50;91.20;;;;;;5067312;28;20049;-68
2022/06/20 09:17:56;;;;;;;9.45;3.80;;;20.90;92.80;;;;;;5069558;28;20086;-68
2022/06/20 09:20:38;;;;;;;8.65;4.50;;;21.10;88.40;;;;;;5070498;28;20558;-68
2022/06/20 09:23:09;;;;;;;9.57;3.83;;;21.00;82.60;;;;;;5071978;28;20041;-68
2022/06/20 09:25:46;;;;;;;17.45;4.10;;;20.70;84.40;;;;;;5064758;28;20075;-68
2022/06/20 09:28:35;;;;;;;11.20;3.28;;;20.40;82.60;;;;;;5072874;28;20152;-68
2022/06/20 09:31:18;;;;;;;25.88;3.22;;;20.00;77.40;;;;;;5066808;28;20113;-67
2022/06/20 09:34:04;;;;;;;9.40;4.05;;;19.90;81.10;;;;;;5068956;28;20162;-67
2022/06/20 09:37:03;;;;;;;6.90;3.17;;;20.00;86.10;;;;;;5056564;28;20131;-67
2022/06/20 09:39:53;;;;;;;9.43;3.95;;;19.80;81.40;;;;;;5066822;28;20055;-66
2022/06/20 09:42:40;;;;;;;11.30;4.45;;;19.70;83.30;;;;;;5060599;28;20111;-66
2022/06/20 09:45:44;;;;;;;4.30;3.60;;;19.80;90.10;;;;;;5051251;28;20043;-67
2022/06/20 09:48:31;;;;;;;8.70;4.72;;;19.90;87.90;;;;;;5070299;28;20079;-67
2022/06/20 09:51:02;;;;;;;7.97;3.47;;;19.90;75.70;;;;;;5071527;28;20119;-67
2022/06/20 09:53:50;;;;;;;6.68;3.67;;;20.00;75.90;;;;;;5066651;28;20098;-67
2022/06/20 09:56:48;;;;;;;5.40;3.90;;;20.10;74.10;;;;;;5054941;28;20033;-67
2022/06/20 09:59:37;;;;;;;8.23;3.97;;;20.00;74.00;;;;;;5055700;28;20378;-66
2022/06/20 10:02:05;;;;;;;8.30;4.50;;;20.10;79.10;;;;;;5062375;28;20076;-66
2022/06/20 10:04:37;;;;;;;10.27;3.97;;;20.10;85.10;;;;;;5060733;28;20051;-67
2022/06/20 10:07:33;;;;;;;14.15;5.38;;;20.30;83.30;;;;;;5068929;28;20099;-67
2022/06/20 10:10:28;;;;;;;11.77;4.50;;;20.60;82.00;;;;;;5061492;28;20114;-67
2022/06/20 10:13:25;;;;;;;18.58;4.85;;;20.80;85.10;;;;;;5073262;28;20048;-66
2022/06/20 10:15:57;;;;;;;9.10;4.85;;;20.90;77.30;;;;;;5068816;28;20082;-67
2022/06/20 10:18:55;;;;;;;13.27;4.30;;;20.80;80.20;;;;;;5067753;28;20044;-66
2022/06/20 10:21:30;;;;;;;4.05;3.10;;;20.70;74.30;;;;;;5063020;28;20052;-67
2022/06/20 10:24:32;;;;;;;15.20;4.05;;;20.40;70.00;;;;;;5064476;28;20135;-69
2022/06/20 10:27:26;;;;;;;7.30;3.70;;;20.40;70.50;;;;;;5069557;28;20040;-67
2022/06/20 10:30:01;;;;;;;5.65;3.75;;;20.40;71.40;;;;;;5058732;28;20053;-67
2022/06/20 10:32:53;;;;;;;5.45;4.00;;;20.40;76.20;;;;;;5065739;28;20047;-67
2022/06/20 10:35:49;;;;;;;10.38;4.63;;;20.40;74.70;;;;;;5063448;28;20049;-67
2022/06/20 10:38:43;;;;;;;12.03;5.47;;;20.40;75.90;;;;;;5052012;28;20048;-67
2022/06/20 10:41:23;;;;;;;5.43;3.60;;;20.60;73.80;;;;;;5047566;28;20514;-67
2022/06/20 10:44:01;;;;;;;9.18;3.90;;;20.90;76.90;;;;;;5070252;28;20131;-67
2022/06/20 10:47:06;;;;;;;13.63;5.45;;;21.30;78.90;;;;;;5066252;28;20111;-67
2022/06/20 10:49:57;;;;;;;6.93;4.10;;;21.80;75.40;;;;;;5048072;28;20057;-68
2022/06/20 10:52:43;;;;;;;12.20;4.75;;;21.80;68.20;;;;;;5052197;28;20045;-67
2022/06/20 10:55:26;;;;;;;6.53;4.40;;;21.80;65.00;;;;;;5062176;28;20046;-67
2022/06/20 10:58:15;;;;;;;10.23;3.58;;;21.70;63.90;;;;;;5062524;28;20902;-67
2022/06/20 11:00:58;;;;;;;6.95;3.33;;;21.80;64.10;;;;;;5065832;28;20090;-67
2022/06/20 11:03:29;;;;;;;10.15;4.35;;;22.00;63.40;;;;;;5056684;28;20083;-67
2022/06/20 11:06:29;;;;;;;9.85;4.32;;;22.30;65.30;;;;;;5059932;28;20413;-67
2022/06/20 11:09:12;;;;;;;9.82;3.67;;;22.40;64.30;;;;;;5060252;28;20093;-68
2022/06/20 11:11:41;;;;;;;5.90;3.60;;;22.60;64.70;;;;;;5066509;28;20059;-68
2022/06/20 11:14:24;;;;;;;4.30;3.15;;;22.50;62.90;;;;;;5067898;28;20151;-68
2022/06/20 11:17:17;;;;;;;6.90;3.47;;;22.40;63.10;;;;;;5066414;28;20151;-68
2022/06/20 11:19:57;;;;;;;10.18;3.83;;;22.70;66.10;;;;;;5065864;28;20387;-68
2022/06/20 11:22:28;;;;;;;12.23;3.95;;;23.00;63.50;;;;;;5063559;28;20153;-68
2022/06/20 11:25:09;;;;;;;7.45;3.65;;;23.10;61.40;;;;;;5066980;28;20044;-68
2022/06/20 11:28:13;;;;;;;9.02;3.65;;;22.80;58.70;;;;;;5063519;28;20040;-68
2022/06/20 11:31:07;;;;;;;6.65;3.40;;;22.60;59.90;;;;;;5057914;28;20127;-68
2022/06/20 11:34:01;;;;;;;16.92;4.18;;;22.60;61.40;;;;;;5055180;28;20037;-69
2022/06/20 11:37:11;;;;;;;8.23;3.83;;;22.60;61.20;;;;;;5051894;28;20040;-68
2022/06/20 11:39:56;;;;;;;10.27;3.97;;;22.60;58.20;;;;;;5061526;28;20048;-68
2022/06/20 11:42:47;;;;;;;12.73;4.50;;;22.40;57.80;;;;;;5066056;28;20520;-68
2022/06/20 11:45:50;;;;;;;6.65;3.85;;;22.50;59.50;;;;;;5067875;28;20401;-68
2022/06/20 11:48:31;;;;;;;11.00;4.72;;;22.60;58.50;;;;;;5065506;28;20044;-68
2022/06/20 11:51:29;;;;;;;8.73;4.00;;;22.60;59.10;;;;;;5067053;28;20040;-68
2022/06/20 11:54:19;;;;;;;8.93;4.00;;;22.70;58.40;;;;;;5059580;28;20057;-68
2022/06/20 11:57:14;;;;;;;9.85;4.07;;;22.90;58.40;;;;;;5065829;28;20559;-67
2022/06/20 11:59:53;;;;;;;11.38;4.60;;;23.10;56.90;;;;;;5061078;28;20041;-68
2022/06/20 12:02:49;;;;;;;8.60;4.07;;;22.50;58.80;;;;;;5049148;28;20457;-68
2022/06/20 12:05:17;;;;;;;13.70;4.15;;;22.40;57.30;;;;;;5058176;28;20045;-68
2022/06/20 12:08:04;;;;;;;10.35;4.63;;;22.30;59.30;;;;;;5061636;28;21487;-68
2022/06/20 12:10:39;;;;;;;6.28;4.30;;;22.30;58.50;;;;;;5058497;28;20045;-68
2022/06/20 12:13:28;;;;;;;10.23;5.43;;;22.00;57.90;;;;;;5069965;28;20516;-68
2022/06/20 12:16:30;;;;;;;12.55;5.40;;;22.20;58.80;;;;;;5067236;28;20056;-68
2022/06/20 12:25:05;;;;;;;9.43;4.72;;;22.30;59.20;;;;;;5068444;28;20113;-68
2022/06/20 12:27:31;;;;;;;7.22;4.38;;;22.20;59.70;;;;;;5069740;28;20036;-68
2022/06/20 12:29:57;;;;;;;6.78;4.47;;;22.00;59.00;;;;;;5068173;28;20451;-68
2022/06/20 12:32:34;;;;;;;17.13;5.97;;;21.90;59.50;;;;;;5069855;28;20051;-68
2022/06/20 12:35:14;;;;;;;5.18;4.40;;;21.70;59.20;;;;;;5064403;28;20055;-67
2022/06/20 12:38:04;;;;;;;14.95;5.25;;;21.80;61.30;;;;;;5073061;28;20039;-68
2022/06/20 12:40:39;;;;;;;6.18;4.85;;;22.10;60.50;;;;;;5072751;28;20408;-67
2022/06/20 12:43:19;;;;;;;9.18;4.88;;;22.00;59.20;;;;;;5079371;28;20040;-67
2022/06/20 12:46:06;;;;;;;8.10;4.70;;;21.80;58.70;;;;;;5066084;28;20048;-67
2022/06/20 12:48:43;;;;;;;14.15;4.20;;;21.60;59.00;;;;;;5069433;28;20051;-67
2022/06/20 12:51:38;;;;;;;8.85;5.57;;;21.60;59.70;;;;;;5070021;28;20044;-67
2022/06/20 12:54:37;;;;;;;5.57;4.15;;;21.80;59.60;;;;;;5064553;28;20137;-68
2022/06/20 12:57:44;;;;;;;5.65;4.53;;;21.90;60.40;;;;;;5061623;28;20097;-67
2022/06/20 13:00:18;;;;;;;6.20;5.30;;;21.70;59.60;;;;;;5068794;28;20145;-67
2022/06/20 13:03:15;;;;;;;7.80;5.32;;;21.70;60.70;;;;;;5067315;28;20044;-67
2022/06/20 13:06:08;;;;;;;7.43;5.70;;;21.60;60.20;;;;;;5068160;28;20083;-67
2022/06/20 13:08:59;;;;;;;9.38;5.53;;;21.50;61.40;;;;;;5064004;28;20147;-67
2022/06/20 13:11:40;;;;;;;10.38;5.60;;;21.50;62.30;;;;;;5068414;28;20055;-68
2022/06/20 13:14:20;;;;;;;5.80;5.13;;;21.20;61.80;;;;;;5067071;28;20049;-67
2022/06/20 13:17:05;;;;;;;9.20;4.70;;;21.20;61.40;;;;;;5068059;28;20079;-67
2022/06/20 13:19:33;;;;;;;10.13;5.20;;;21.10;62.70;;;;;;5068962;28;20059;-67
2022/06/20 13:22:39;;;;;;;13.85;5.05;;;21.20;62.60;;;;;;5067504;28;20052;-67
2022/06/20 13:25:10;;;;;;;8.30;4.88;;;21.50;62.10;;;;;;5068718;28;20432;-67
2022/06/20 13:27:48;;;;;;;7.10;4.20;;;21.70;61.60;;;;;;5066879;28;20110;-67
2022/06/20 13:30:36;;;;;;;10.45;4.63;;;21.90;59.30;;;;;;5069048;28;20059;-67
2022/06/20 13:33:43;;;;;;;8.93;4.28;;;22.10;59.20;;;;;;5066834;28;20052;-68
2022/06/20 13:36:29;;;;;;;6.85;4.88;;;22.00;59.40;;;;;;5060624;28;20052;-67
2022/06/20 13:39:18;;;;;;;7.85;4.32;;;21.80;58.40;;;;;;5049979;28;20083;-67
2022/06/20 13:41:49;;;;;;;4.93;3.92;;;21.90;60.20;;;;;;5068435;28;20048;-67
2022/06/20 13:44:38;;;;;;;6.88;4.30;;;21.70;60.20;;;;;;5068654;28;20872;-68
2022/06/20 13:47:16;;;;;;;8.95;4.18;;;21.60;58.50;;;;;;5058118;28;20047;-67
2022/06/20 13:49:57;;;;;;;14.55;5.45;;;21.50;59.70;;;;;;5070610;28;20066;-67
2022/06/20 13:52:31;;;;;;;9.82;4.57;;;21.50;60.80;;;;;;5066264;28;20155;-67
2022/06/20 13:55:14;;;;;;;10.68;4.75;;;21.60;63.00;;;;;;5060328;28;20528;-67
2022/06/20 13:57:49;;;;;;;9.45;3.97;;;21.50;62.70;;;;;;5061916;28;20037;-67